Time;durP1;ratioP1;P1;durP2;ratioP2;P2;SDS_P1;SDS_P2;PMS_P1;PMS_P2;Temp;Humidity;BMP_temperature;BMP_pressure;BME280_temperature;BME280_humidity;BME280_pressure;Samples;Min_cycle;Max_cycle;Signal;HPM_P1;HPM_P2
2022/02/27 00:02:20;;;;;;;27.23;11.13;;;3.50;99.90;;;;;;5033780;28;20028;-76
2022/02/27 00:04:45;;;;;;;25.35;11.38;;;3.50;99.90;;;;;;5033657;28;20458;-75
2022/02/27 00:07:11;;;;;;;30.55;11.90;;;3.50;99.90;;;;;;5027335;28;20112;-75
2022/02/27 00:09:36;;;;;;;24.75;11.05;;;3.50;99.90;;;;;;5038071;28;20040;-75
2022/02/27 00:12:02;;;;;;;29.50;11.00;;;3.50;99.90;;;;;;5024225;28;20030;-75
2022/02/27 00:14:28;;;;;;;26.52;11.38;;;3.40;99.90;;;;;;5026263;28;20022;-75
2022/02/27 00:16:53;;;;;;;23.20;11.32;;;3.40;99.90;;;;;;5034928;28;20025;-75
2022/02/27 00:19:21;;;;;;;28.85;11.65;;;3.30;99.90;;;;;;5029575;28;20084;-75
2022/02/27 00:21:47;;;;;;;24.55;11.40;;;3.30;99.90;;;;;;5033345;28;20025;-75
2022/02/27 00:24:12;;;;;;;23.60;11.32;;;3.30;99.90;;;;;;5040503;28;20014;-74
2022/02/27 00:26:38;;;;;;;24.55;10.90;;;3.30;99.90;;;;;;5040051;28;20119;-75
2022/02/27 00:29:04;;;;;;;27.02;11.23;;;3.20;99.90;;;;;;5028486;28;20041;-74
2022/02/27 00:31:30;;;;;;;22.92;9.40;;;3.10;99.90;;;;;;5029689;28;20021;-75
2022/02/27 00:33:55;;;;;;;25.20;10.85;;;3.20;99.90;;;;;;5040404;28;20030;-75
2022/02/27 00:36:21;;;;;;;22.33;10.40;;;3.10;99.90;;;;;;5030572;28;20485;-75
2022/02/27 00:38:46;;;;;;;28.45;11.13;;;3.10;99.90;;;;;;5041461;28;20033;-74
2022/02/27 00:41:12;;;;;;;29.27;12.02;;;3.10;99.90;;;;;;5026789;28;20025;-74
2022/02/27 00:43:38;;;;;;;22.83;10.98;;;3.00;99.90;;;;;;5027726;28;20108;-74
2022/02/27 00:46:07;;;;;;;29.50;13.02;;;3.10;99.90;;;;;;5034604;28;20021;-75
2022/02/27 00:48:33;;;;;;;31.58;11.70;;;3.00;99.90;;;;;;5033918;28;20468;-75
2022/02/27 00:50:59;;;;;;;23.33;10.35;;;3.00;99.90;;;;;;5028780;28;20048;-75
2022/02/27 00:53:25;;;;;;;27.05;11.00;;;3.00;99.90;;;;;;5040851;28;20026;-74
2022/02/27 00:55:50;;;;;;;27.95;11.02;;;3.00;99.90;;;;;;5034819;28;20075;-75
2022/02/27 00:58:16;;;;;;;28.20;11.52;;;3.00;99.90;;;;;;5037879;28;20056;-74
2022/02/27 01:00:42;;;;;;;31.35;10.52;;;3.00;99.90;;;;;;5037489;28;20024;-75
2022/02/27 01:03:08;;;;;;;28.88;11.70;;;3.00;99.90;;;;;;5031180;28;20021;-75
2022/02/27 01:05:34;;;;;;;28.17;12.52;;;3.00;99.90;;;;;;5040494;28;20051;-74
2022/02/27 01:07:59;;;;;;;31.88;12.10;;;2.90;99.90;;;;;;5039552;28;20057;-74
2022/02/27 01:10:25;;;;;;;29.73;12.10;;;2.90;99.90;;;;;;5030503;28;20116;-74
2022/02/27 01:12:50;;;;;;;27.50;11.55;;;2.80;99.90;;;;;;5038138;28;20029;-75
2022/02/27 01:15:17;;;;;;;27.90;11.43;;;2.80;99.90;;;;;;5038455;28;20021;-75
2022/02/27 01:17:43;;;;;;;25.83;10.35;;;2.80;99.90;;;;;;5039105;28;20370;-75
2022/02/27 01:20:09;;;;;;;25.55;11.55;;;2.80;99.90;;;;;;5039578;28;20034;-75
2022/02/27 01:22:35;;;;;;;23.80;10.15;;;2.80;99.90;;;;;;5028936;28;20025;-75
2022/02/27 01:25:01;;;;;;;23.85;11.07;;;2.70;99.90;;;;;;5039993;28;20026;-75
2022/02/27 01:27:27;;;;;;;27.23;10.10;;;2.70;99.90;;;;;;5026520;28;20021;-75
2022/02/27 01:29:53;;;;;;;30.70;11.85;;;2.70;99.90;;;;;;5028803;28;20121;-75
2022/02/27 01:32:18;;;;;;;29.63;11.50;;;2.70;99.90;;;;;;5038106;28;20057;-75
2022/02/27 01:34:44;;;;;;;23.10;11.23;;;2.60;99.90;;;;;;5032422;28;20494;-75
2022/02/27 01:37:10;;;;;;;23.58;11.63;;;2.60;99.90;;;;;;5038872;28;20029;-75
2022/02/27 01:39:35;;;;;;;23.33;11.82;;;2.60;99.90;;;;;;5028916;28;20075;-75
2022/02/27 01:42:01;;;;;;;28.10;10.77;;;2.60;99.90;;;;;;5041573;28;20381;-75
2022/02/27 01:44:26;;;;;;;26.52;10.75;;;2.60;99.90;;;;;;5032110;28;20025;-75
2022/02/27 01:47:04;;;;;;;28.88;11.27;;;2.60;99.90;;;;;;5036157;28;20110;-75
2022/02/27 01:49:30;;;;;;;22.48;10.77;;;2.60;99.90;;;;;;5028703;28;20065;-75
2022/02/27 01:51:56;;;;;;;26.90;10.48;;;2.60;99.90;;;;;;5030074;28;20056;-74
2022/02/27 01:54:23;;;;;;;25.88;10.55;;;2.60;99.90;;;;;;5027923;28;20627;-75
2022/02/27 01:56:48;;;;;;;25.60;11.40;;;2.60;99.90;;;;;;5034376;28;20017;-75
2022/02/27 01:59:14;;;;;;;29.88;11.48;;;2.60;99.90;;;;;;5034086;28;20029;-75
2022/02/27 02:01:41;;;;;;;25.85;11.48;;;2.60;99.90;;;;;;5040052;28;20018;-75
2022/02/27 02:04:07;;;;;;;27.45;10.73;;;2.60;99.90;;;;;;5028134;28;20029;-75
2022/02/27 02:06:32;;;;;;;29.15;11.48;;;2.50;99.90;;;;;;5029057;28;20025;-75
2022/02/27 02:08:58;;;;;;;23.73;11.20;;;2.60;99.90;;;;;;5038498;28;20466;-75
2022/02/27 02:11:23;;;;;;;24.58;10.85;;;2.60;99.90;;;;;;5034655;28;20040;-75
2022/02/27 02:13:49;;;;;;;32.28;12.65;;;2.60;99.90;;;;;;5035764;28;20029;-74
2022/02/27 02:16:15;;;;;;;24.77;11.82;;;2.60;99.90;;;;;;5029453;28;20166;-75
2022/02/27 02:18:41;;;;;;;28.90;12.93;;;2.60;99.90;;;;;;5036794;28;20112;-75
2022/02/27 02:21:07;;;;;;;23.25;12.27;;;2.50;99.90;;;;;;5033693;28;20033;-74
2022/02/27 02:23:33;;;;;;;27.52;12.63;;;2.40;99.90;;;;;;5032744;28;20025;-75
2022/02/27 02:26:02;;;;;;;32.80;12.70;;;2.50;99.90;;;;;;5032517;28;20078;-75
2022/02/27 02:28:28;;;;;;;32.90;12.30;;;2.50;99.90;;;;;;5033047;28;20040;-75
2022/02/27 02:30:54;;;;;;;23.50;11.65;;;2.50;99.90;;;;;;5035403;28;20408;-75
2022/02/27 02:33:33;;;;;;;31.67;12.85;;;2.40;99.90;;;;;;5033490;28;20036;-75
2022/02/27 02:35:59;;;;;;;27.63;10.80;;;2.40;99.90;;;;;;5030043;28;20026;-75
2022/02/27 02:38:26;;;;;;;25.15;11.45;;;2.50;99.90;;;;;;5035784;28;20078;-75
2022/02/27 02:40:51;;;;;;;34.17;11.50;;;2.50;99.90;;;;;;5042592;28;20029;-74
2022/02/27 02:43:17;;;;;;;23.55;10.88;;;2.50;99.90;;;;;;5039515;28;20025;-74
2022/02/27 02:45:43;;;;;;;20.30;10.55;;;2.40;99.90;;;;;;5037748;28;20037;-75
2022/02/27 02:48:08;;;;;;;26.90;11.25;;;2.40;99.90;;;;;;5037790;28;20041;-74
2022/02/27 02:50:34;;;;;;;30.05;10.70;;;2.40;99.90;;;;;;5037287;28;20050;-74
2022/02/27 02:53:00;;;;;;;27.42;10.82;;;2.30;99.90;;;;;;5046404;28;20168;-74
2022/02/27 02:55:25;;;;;;;30.42;10.55;;;2.30;99.90;;;;;;5039698;28;20112;-74
2022/02/27 02:57:51;;;;;;;25.42;11.35;;;2.30;99.90;;;;;;5041393;28;20021;-74
2022/02/27 03:00:17;;;;;;;28.67;10.30;;;2.40;99.90;;;;;;5039913;28;20025;-75
2022/02/27 03:02:42;;;;;;;29.92;11.45;;;2.30;99.90;;;;;;5039582;28;20024;-74
2022/02/27 03:05:09;;;;;;;29.73;11.88;;;2.30;99.90;;;;;;5040183;28;20033;-75
2022/02/27 03:07:36;;;;;;;24.20;10.75;;;2.30;99.90;;;;;;5037184;28;20017;-74
2022/02/27 03:10:06;;;;;;;22.40;11.88;;;2.30;99.90;;;;;;5043397;28;20521;-74
2022/02/27 03:12:32;;;;;;;25.50;11.05;;;2.30;99.90;;;;;;5040924;28;20462;-74
2022/02/27 03:14:59;;;;;;;24.45;10.88;;;2.30;99.90;;;;;;5029984;28;20049;-74
2022/02/27 03:17:24;;;;;;;32.17;11.65;;;2.20;99.90;;;;;;5043269;28;20457;-74
2022/02/27 03:19:50;;;;;;;29.10;10.68;;;2.30;99.90;;;;;;5037313;28;20021;-74
2022/02/27 03:22:15;;;;;;;27.50;11.90;;;2.20;99.90;;;;;;5037585;28;20040;-74
2022/02/27 03:24:41;;;;;;;26.05;10.43;;;2.30;99.90;;;;;;5037999;28;20037;-74
2022/02/27 03:27:07;;;;;;;32.20;11.43;;;2.20;99.90;;;;;;5032713;28;20030;-74
2022/02/27 03:29:32;;;;;;;28.73;11.43;;;2.20;99.90;;;;;;5040030;28;20038;-74
2022/02/27 03:31:58;;;;;;;28.90;11.20;;;2.20;99.90;;;;;;5041761;28;20032;-74
2022/02/27 03:34:23;;;;;;;28.98;10.52;;;2.20;99.90;;;;;;5046151;28;20057;-74
2022/02/27 03:36:49;;;;;;;30.73;11.75;;;2.20;99.90;;;;;;5045597;28;20497;-74
2022/02/27 03:39:15;;;;;;;26.75;10.93;;;2.20;99.90;;;;;;5026871;28;20116;-75
2022/02/27 03:41:40;;;;;;;26.83;11.77;;;2.10;99.90;;;;;;5035250;28;20030;-75
2022/02/27 03:44:06;;;;;;;26.67;10.40;;;2.10;99.90;;;;;;5023145;28;20485;-74
2022/02/27 03:46:34;;;;;;;27.23;11.35;;;2.10;99.90;;;;;;5039073;28;20029;-75
2022/02/27 03:49:02;;;;;;;28.98;10.82;;;2.10;99.90;;;;;;5037618;28;20064;-74
2022/02/27 03:51:28;;;;;;;28.40;11.02;;;2.10;99.90;;;;;;5045910;28;20097;-74
2022/02/27 03:53:53;;;;;;;28.67;10.55;;;2.10;99.90;;;;;;5026055;28;20104;-74
2022/02/27 03:56:19;;;;;;;27.00;10.15;;;2.10;99.90;;;;;;5033603;28;20072;-75
2022/02/27 03:58:45;;;;;;;30.15;11.73;;;2.10;99.90;;;;;;5035053;28;20033;-75
2022/02/27 04:01:10;;;;;;;21.88;9.65;;;2.10;99.90;;;;;;5044272;28;20022;-74
2022/02/27 04:03:36;;;;;;;30.48;11.25;;;2.10;99.90;;;;;;5032661;28;20029;-74
2022/02/27 04:06:02;;;;;;;24.23;9.70;;;2.10;99.90;;;;;;5029139;28;20029;-75
2022/02/27 04:08:27;;;;;;;29.45;11.45;;;2.20;99.90;;;;;;5041325;28;20055;-74
2022/02/27 04:10:53;;;;;;;27.95;11.20;;;2.10;99.90;;;;;;5034412;28;20029;-74
2022/02/27 04:13:19;;;;;;;27.40;11.45;;;2.10;99.90;;;;;;5033802;28;20032;-75
2022/02/27 04:15:44;;;;;;;26.65;10.25;;;2.20;99.90;;;;;;5032722;28;20025;-75
2022/02/27 04:18:10;;;;;;;28.30;10.50;;;2.10;99.90;;;;;;5029021;28;20038;-74
2022/02/27 04:20:36;;;;;;;28.25;11.02;;;2.10;99.90;;;;;;5034801;28;20029;-75
2022/02/27 04:23:01;;;;;;;30.35;11.88;;;2.10;99.90;;;;;;5029169;28;20051;-75
2022/02/27 04:25:27;;;;;;;31.77;11.27;;;2.10;99.90;;;;;;5035779;28;20053;-74
2022/02/27 04:27:53;;;;;;;35.80;12.52;;;2.10;99.90;;;;;;5039068;28;20025;-74
2022/02/27 04:30:19;;;;;;;28.83;11.00;;;2.00;99.90;;;;;;5028813;28;20029;-75
2022/02/27 04:32:44;;;;;;;31.75;10.50;;;2.10;99.90;;;;;;5031933;28;20103;-75
2022/02/27 04:35:10;;;;;;;28.23;11.75;;;2.00;99.90;;;;;;5040049;28;20026;-74
2022/02/27 04:37:36;;;;;;;31.75;11.88;;;2.10;99.90;;;;;;5031116;28;20030;-74
2022/02/27 04:40:03;;;;;;;24.85;11.65;;;2.00;99.90;;;;;;5043900;28;20018;-73
2022/02/27 04:42:29;;;;;;;27.08;10.27;;;2.00;99.90;;;;;;5032607;28;20030;-74
2022/02/27 04:44:54;;;;;;;24.45;11.55;;;2.00;99.90;;;;;;5035504;28;20022;-75
2022/02/27 04:47:20;;;;;;;26.30;12.05;;;2.10;99.90;;;;;;5033279;28;20044;-75
2022/02/27 04:49:48;;;;;;;25.17;9.82;;;2.10;99.90;;;;;;5037652;28;20045;-75
2022/02/27 04:52:15;;;;;;;29.77;10.95;;;2.10;99.90;;;;;;5048425;28;20021;-74
2022/02/27 04:54:41;;;;;;;26.08;9.88;;;2.00;99.90;;;;;;5028043;28;20033;-74
2022/02/27 04:57:06;;;;;;;21.65;10.85;;;2.00;99.90;;;;;;5043375;28;20017;-74
2022/02/27 04:59:32;;;;;;;25.52;10.40;;;2.00;99.90;;;;;;5042078;28;20029;-74
2022/02/27 05:01:57;;;;;;;26.13;10.95;;;1.90;99.90;;;;;;5030088;28;20034;-76
2022/02/27 05:04:23;;;;;;;21.45;10.35;;;1.90;99.90;;;;;;5031266;28;20033;-75
2022/02/27 05:06:48;;;;;;;22.20;10.68;;;1.90;99.90;;;;;;5043229;28;20033;-75
2022/02/27 05:09:17;;;;;;;26.42;11.18;;;1.90;99.90;;;;;;5043279;28;20040;-74
2022/02/27 05:11:44;;;;;;;27.90;11.40;;;1.90;99.90;;;;;;5037437;28;20029;-73
2022/02/27 05:14:10;;;;;;;27.10;10.43;;;1.90;99.90;;;;;;5033579;28;20112;-75
2022/02/27 05:16:36;;;;;;;24.48;10.27;;;1.90;99.90;;;;;;5036078;28;20400;-74
2022/02/27 05:19:01;;;;;;;24.48;10.43;;;1.90;99.90;;;;;;5035101;28;20035;-74
2022/02/27 05:21:27;;;;;;;28.10;10.80;;;1.90;99.90;;;;;;5038430;28;20033;-74
2022/02/27 05:23:52;;;;;;;22.42;11.80;;;1.90;99.90;;;;;;5026592;28;20481;-74
2022/02/27 05:26:18;;;;;;;27.80;10.95;;;1.80;99.90;;;;;;5040794;28;20036;-74
2022/02/27 05:28:45;;;;;;;23.63;10.75;;;1.80;99.90;;;;;;5026729;28;20048;-74
2022/02/27 05:31:11;;;;;;;25.13;10.20;;;1.80;99.90;;;;;;5040934;28;20025;-74
2022/02/27 05:33:37;;;;;;;26.15;11.27;;;1.70;99.90;;;;;;5025165;28;20390;-74
2022/02/27 05:36:03;;;;;;;28.27;11.57;;;1.80;99.90;;;;;;5034639;28;20032;-74
2022/02/27 05:38:28;;;;;;;24.77;11.10;;;1.80;99.90;;;;;;5035136;28;20037;-74
2022/02/27 05:40:54;;;;;;;25.27;10.13;;;1.80;99.90;;;;;;5042154;28;20033;-74
2022/02/27 05:43:20;;;;;;;26.70;10.45;;;1.80;99.90;;;;;;5037607;28;20134;-74
2022/02/27 05:45:45;;;;;;;26.88;9.98;;;1.80;99.90;;;;;;5031646;28;20028;-74
2022/02/27 05:48:11;;;;;;;22.67;10.50;;;1.80;99.90;;;;;;5035473;28;20037;-74
2022/02/27 05:50:36;;;;;;;31.90;9.90;;;1.70;99.90;;;;;;5036250;28;20399;-74
2022/02/27 05:53:02;;;;;;;26.95;10.85;;;1.80;99.90;;;;;;5046991;28;20025;-74
2022/02/27 05:55:29;;;;;;;26.73;10.70;;;1.70;99.90;;;;;;5041467;28;20029;-73
2022/02/27 05:57:54;;;;;;;27.85;10.13;;;1.60;99.90;;;;;;5028940;28;20026;-75
2022/02/27 06:00:20;;;;;;;21.15;9.80;;;1.70;99.90;;;;;;5039525;28;20473;-74
2022/02/27 06:02:46;;;;;;;27.52;11.15;;;1.70;99.90;;;;;;5030254;28;20057;-74
2022/02/27 06:05:11;;;;;;;31.13;9.93;;;1.70;99.90;;;;;;5041135;28;20519;-74
2022/02/27 06:07:37;;;;;;;24.17;10.13;;;1.70;99.90;;;;;;5054085;28;20017;-75
2022/02/27 06:10:04;;;;;;;25.10;9.65;;;1.60;99.90;;;;;;5035212;28;20030;-74
2022/02/27 06:12:30;;;;;;;26.30;8.52;;;1.70;99.90;;;;;;5029369;28;20105;-74
2022/02/27 06:14:55;;;;;;;21.90;8.75;;;1.70;99.90;;;;;;5025489;28;20546;-74
2022/02/27 06:17:21;;;;;;;19.60;9.15;;;1.70;99.90;;;;;;5040298;28;20071;-75
2022/02/27 06:19:47;;;;;;;20.88;9.60;;;1.70;99.90;;;;;;5029234;28;20492;-73
2022/02/27 06:22:12;;;;;;;23.02;9.75;;;1.70;99.90;;;;;;5037618;28;20025;-76
2022/02/27 06:24:38;;;;;;;27.05;11.13;;;1.70;99.90;;;;;;5031679;28;20017;-76
2022/02/27 06:27:04;;;;;;;20.77;10.43;;;1.60;99.90;;;;;;5039682;28;20052;-75
2022/02/27 06:29:29;;;;;;;30.17;9.25;;;1.70;99.90;;;;;;5035383;28;20445;-74
2022/02/27 06:31:55;;;;;;;19.38;9.90;;;1.60;99.90;;;;;;5047495;28;20067;-74
2022/02/27 06:34:21;;;;;;;22.13;10.15;;;1.60;99.90;;;;;;5041890;28;20492;-75
2022/02/27 06:36:46;;;;;;;28.75;10.25;;;1.60;99.90;;;;;;5030912;28;20057;-74
2022/02/27 06:39:12;;;;;;;28.42;10.27;;;1.70;99.90;;;;;;5031718;28;20049;-75
2022/02/27 06:41:37;;;;;;;30.98;9.73;;;1.70;99.90;;;;;;5034426;28;20105;-74
2022/02/27 06:44:03;;;;;;;23.95;10.27;;;1.70;99.90;;;;;;5039669;28;20579;-75
2022/02/27 06:46:30;;;;;;;30.50;10.00;;;1.60;99.90;;;;;;5028837;28;20036;-74
2022/02/27 06:48:56;;;;;;;23.13;9.70;;;1.60;99.90;;;;;;5037705;28;20025;-74
2022/02/27 06:51:21;;;;;;;24.98;9.38;;;1.60;99.90;;;;;;5046319;28;20598;-75
2022/02/27 06:53:47;;;;;;;18.08;8.85;;;1.60;99.90;;;;;;5045503;28;20022;-75
2022/02/27 06:56:13;;;;;;;19.10;9.07;;;1.60;99.90;;;;;;5043222;28;20057;-74
2022/02/27 06:58:39;;;;;;;19.25;8.40;;;1.60;99.90;;;;;;5035962;28;20029;-75
2022/02/27 07:01:05;;;;;;;20.48;8.13;;;1.50;99.90;;;;;;5036264;28;20021;-74
2022/02/27 07:03:31;;;;;;;17.98;9.13;;;1.50;99.90;;;;;;5032645;28;20025;-75
2022/02/27 07:05:57;;;;;;;17.92;7.63;;;1.50;99.90;;;;;;5033637;28;20702;-75
2022/02/27 07:08:22;;;;;;;26.15;8.82;;;1.40;99.90;;;;;;5032091;28;20458;-75
2022/02/27 07:10:48;;;;;;;18.27;9.45;;;1.40;99.90;;;;;;5030488;28;20087;-74
2022/02/27 07:13:14;;;;;;;25.98;8.98;;;1.40;99.90;;;;;;5035650;28;20041;-74
2022/02/27 07:15:39;;;;;;;18.67;8.48;;;1.40;99.90;;;;;;5030847;28;20041;-75
2022/02/27 07:18:05;;;;;;;20.63;8.43;;;1.40;99.90;;;;;;5037371;28;20034;-74
2022/02/27 07:20:31;;;;;;;20.02;8.88;;;1.40;99.90;;;;;;5029038;28;20021;-74
2022/02/27 07:22:57;;;;;;;26.67;8.80;;;1.40;99.90;;;;;;5039968;28;20109;-74
2022/02/27 07:25:23;;;;;;;16.83;8.18;;;1.40;99.90;;;;;;5040902;28;20104;-75
2022/02/27 07:27:49;;;;;;;18.50;8.30;;;1.40;99.90;;;;;;5032701;28;20024;-74
2022/02/27 07:30:15;;;;;;;26.63;8.85;;;1.40;99.90;;;;;;5033485;28;20037;-75
2022/02/27 07:32:40;;;;;;;16.77;7.82;;;1.40;99.90;;;;;;5031641;28;20042;-75
2022/02/27 07:35:06;;;;;;;18.35;7.60;;;1.40;99.90;;;;;;5034389;28;20063;-75
2022/02/27 07:37:34;;;;;;;23.52;7.40;;;1.50;99.90;;;;;;5033511;28;20020;-74
2022/02/27 07:39:59;;;;;;;22.70;7.60;;;1.50;99.90;;;;;;5024130;28;20522;-74
2022/02/27 07:42:25;;;;;;;23.02;7.22;;;1.50;99.90;;;;;;5046614;28;20109;-74
2022/02/27 07:44:52;;;;;;;21.52;6.50;;;1.50;99.90;;;;;;5036108;28;20060;-74
2022/02/27 07:47:18;;;;;;;21.60;6.90;;;1.70;99.90;;;;;;5033728;28;20032;-75
2022/02/27 07:49:44;;;;;;;19.27;7.90;;;1.70;99.90;;;;;;5032503;28;20037;-75
2022/02/27 07:52:09;;;;;;;20.23;6.82;;;1.70;99.90;;;;;;5029439;28;20040;-75
2022/02/27 07:54:35;;;;;;;18.35;7.88;;;1.70;99.90;;;;;;5037911;28;20071;-75
2022/02/27 07:57:00;;;;;;;23.52;7.88;;;1.90;99.90;;;;;;5025964;28;20425;-75
2022/02/27 07:59:26;;;;;;;17.08;7.47;;;2.00;99.90;;;;;;5038305;28;20028;-74
2022/02/27 08:01:52;;;;;;;17.38;8.02;;;2.10;99.90;;;;;;5027730;28;20033;-74
2022/02/27 08:04:17;;;;;;;21.75;6.88;;;2.10;99.90;;;;;;5035486;28;20564;-74
2022/02/27 08:06:43;;;;;;;16.88;6.85;;;2.20;99.90;;;;;;5031647;28;20017;-74
2022/02/27 08:09:10;;;;;;;17.42;6.72;;;2.30;99.90;;;;;;5036160;28;20041;-74
2022/02/27 08:11:36;;;;;;;14.88;6.50;;;2.50;99.90;;;;;;5023852;28;20417;-74
2022/02/27 08:14:02;;;;;;;17.88;6.55;;;2.60;99.90;;;;;;5037589;28;20033;-74
2022/02/27 08:16:28;;;;;;;17.38;6.50;;;2.80;99.90;;;;;;5047184;28;20017;-74
2022/02/27 08:18:55;;;;;;;17.13;6.13;;;2.90;99.90;;;;;;5044307;28;20064;-75
2022/02/27 08:21:20;;;;;;;17.48;6.55;;;3.20;99.90;;;;;;5033133;28;20033;-74
2022/02/27 08:23:46;;;;;;;16.45;5.53;;;3.30;99.90;;;;;;5029282;28;20412;-74
2022/02/27 08:26:11;;;;;;;13.93;6.30;;;3.40;99.90;;;;;;5028338;28;20101;-74
2022/02/27 08:28:37;;;;;;;14.80;6.22;;;3.50;99.90;;;;;;5034806;28;20473;-74
2022/02/27 08:31:03;;;;;;;16.50;7.25;;;3.50;99.90;;;;;;5032722;28;20057;-73
2022/02/27 08:33:28;;;;;;;17.48;6.07;;;3.60;99.90;;;;;;5026296;28;20377;-74
2022/02/27 08:35:55;;;;;;;15.68;5.70;;;3.80;99.90;;;;;;5035277;28;20027;-73
2022/02/27 08:38:21;;;;;;;16.02;5.53;;;3.80;99.90;;;;;;5025392;28;20133;-75
2022/02/27 08:40:48;;;;;;;11.98;6.15;;;3.90;99.90;;;;;;5030569;28;20034;-74
2022/02/27 08:43:15;;;;;;;17.90;6.13;;;4.10;99.90;;;;;;5025351;28;20021;-74
2022/02/27 08:45:41;;;;;;;19.40;6.70;;;4.30;99.90;;;;;;5034233;28;20447;-74
2022/02/27 08:48:06;;;;;;;18.40;6.03;;;4.40;99.90;;;;;;5035559;28;20037;-74
2022/02/27 08:50:32;;;;;;;14.77;5.70;;;4.50;99.90;;;;;;5040486;28;20040;-74
2022/02/27 08:52:58;;;;;;;17.65;5.72;;;4.80;99.90;;;;;;5044706;28;20040;-74
2022/02/27 08:55:23;;;;;;;18.25;5.22;;;4.70;99.90;;;;;;5039886;28;20032;-74
2022/02/27 08:57:49;;;;;;;13.77;6.10;;;4.70;99.90;;;;;;5035888;28;20056;-74
2022/02/27 09:00:17;;;;;;;11.98;5.65;;;4.80;99.90;;;;;;5031174;28;20544;-74
2022/02/27 09:02:42;;;;;;;15.50;5.88;;;4.90;99.90;;;;;;5028423;28;20491;-74
2022/02/27 09:05:08;;;;;;;15.25;5.68;;;5.10;99.90;;;;;;5037639;28;20053;-73
2022/02/27 09:07:35;;;;;;;14.85;5.60;;;5.20;99.90;;;;;;5027086;28;20056;-74
2022/02/27 09:10:00;;;;;;;21.35;5.60;;;5.50;99.90;;;;;;5035945;28;20057;-73
2022/02/27 09:12:26;;;;;;;14.77;6.28;;;5.40;99.90;;;;;;5026265;28;20068;-73
2022/02/27 09:14:52;;;;;;;12.80;5.10;;;5.50;99.90;;;;;;5037030;28;20036;-74
2022/02/27 09:17:18;;;;;;;14.75;5.82;;;5.60;99.90;;;;;;5030664;28;20084;-74
2022/02/27 09:19:45;;;;;;;15.15;5.97;;;5.70;99.90;;;;;;5035465;28;20217;-74
2022/02/27 09:22:12;;;;;;;8.95;4.95;;;5.90;99.90;;;;;;5049875;28;20025;-73
2022/02/27 09:24:37;;;;;;;13.15;5.95;;;6.10;99.90;;;;;;5045687;28;20138;-74
2022/02/27 09:27:03;;;;;;;14.10;5.60;;;6.10;99.90;;;;;;5044209;28;20055;-74
2022/02/27 09:29:29;;;;;;;10.40;5.38;;;6.10;99.90;;;;;;5038390;28;20102;-74
2022/02/27 09:31:55;;;;;;;15.60;4.88;;;6.20;99.90;;;;;;5027813;28;20513;-73
2022/02/27 09:34:21;;;;;;;20.08;5.82;;;6.20;99.90;;;;;;5040862;28;20068;-73
2022/02/27 09:36:46;;;;;;;13.57;5.60;;;6.40;99.90;;;;;;5030880;28;20467;-74
2022/02/27 09:39:12;;;;;;;15.63;5.78;;;6.50;99.90;;;;;;5041658;28;20030;-74
2022/02/27 09:41:38;;;;;;;18.13;5.70;;;6.70;99.90;;;;;;5031269;28;20449;-73
2022/02/27 09:44:04;;;;;;;10.93;4.90;;;6.80;99.90;;;;;;5040036;28;20033;-74
2022/02/27 09:46:31;;;;;;;16.10;5.22;;;6.90;99.90;;;;;;5037517;28;20029;-74
2022/02/27 09:48:57;;;;;;;13.63;4.70;;;7.10;99.90;;;;;;5034288;28;20049;-74
2022/02/27 09:51:23;;;;;;;11.25;5.18;;;7.00;99.90;;;;;;5038307;28;20025;-74
2022/02/27 09:53:50;;;;;;;13.57;4.97;;;7.10;99.90;;;;;;5031328;28;20032;-73
2022/02/27 09:56:16;;;;;;;14.02;5.85;;;7.20;99.90;;;;;;5040153;28;20474;-74
2022/02/27 09:58:42;;;;;;;11.93;5.72;;;7.40;99.90;;;;;;5043939;28;20423;-73
2022/02/27 10:01:09;;;;;;;12.55;5.13;;;7.40;99.90;;;;;;5029895;28;20044;-73
2022/02/27 10:03:34;;;;;;;11.55;4.97;;;7.40;99.90;;;;;;5030683;28;20020;-74
2022/02/27 10:06:08;;;;;;;15.52;5.95;;;7.50;99.90;;;;;;5025044;28;20034;-74
2022/02/27 10:08:42;;;;;;;8.70;4.68;;;7.50;99.90;;;;;;5042729;28;20479;-73
2022/02/27 10:11:11;;;;;;;12.85;4.80;;;7.60;99.90;;;;;;5042025;28;20026;-73
2022/02/27 10:13:57;;;;;;;12.88;4.53;;;7.80;99.90;;;;;;5038541;28;20356;-74
2022/02/27 10:16:26;;;;;;;7.97;4.28;;;8.00;99.90;;;;;;5034526;28;20358;-74
2022/02/27 10:18:58;;;;;;;10.02;4.43;;;8.00;99.90;;;;;;5042135;28;20026;-74
2022/02/27 10:21:37;;;;;;;8.73;4.47;;;7.90;99.90;;;;;;5031637;28;20116;-75
2022/02/27 10:24:06;;;;;;;10.30;4.60;;;8.10;99.90;;;;;;5036515;28;20034;-73
2022/02/27 10:26:35;;;;;;;9.90;4.05;;;8.30;99.90;;;;;;5036134;28;20105;-73
2022/02/27 10:29:10;;;;;;;10.80;5.20;;;8.10;99.90;;;;;;5038187;28;20486;-73
2022/02/27 10:31:38;;;;;;;11.23;4.25;;;8.10;99.90;;;;;;5039535;28;20022;-73
2022/02/27 10:34:20;;;;;;;8.77;4.13;;;8.30;99.90;;;;;;5040376;28;20033;-73
2022/02/27 10:37:08;;;;;;;14.23;4.78;;;8.30;99.90;;;;;;5032880;28;20096;-72
2022/02/27 10:39:45;;;;;;;9.77;3.65;;;8.40;99.90;;;;;;5037517;28;20029;-75
2022/02/27 10:42:17;;;;;;;8.27;4.10;;;8.60;99.90;;;;;;5030106;28;20032;-74
2022/02/27 10:45:05;;;;;;;9.00;4.20;;;8.60;99.90;;;;;;5028987;28;20041;-76
2022/02/27 10:47:32;;;;;;;10.40;4.32;;;8.60;99.90;;;;;;5036082;28;20025;-75
2022/02/27 10:50:00;;;;;;;8.40;4.18;;;8.60;99.90;;;;;;5026184;28;20042;-76
2022/02/27 10:52:31;;;;;;;7.15;3.88;;;8.70;99.90;;;;;;5052578;28;20107;-75
2022/02/27 10:55:02;;;;;;;9.23;4.53;;;8.70;99.90;;;;;;5027274;28;20030;-76
2022/02/27 10:57:34;;;;;;;9.00;4.55;;;8.80;99.90;;;;;;5033659;28;20013;-75
2022/02/27 11:00:19;;;;;;;9.73;4.43;;;8.70;99.90;;;;;;5032065;28;20060;-75
2022/02/27 11:02:49;;;;;;;7.65;3.90;;;8.80;99.90;;;;;;5031611;28;20021;-75
2022/02/27 11:05:16;;;;;;;9.73;3.88;;;8.80;99.90;;;;;;5030789;28;20029;-75
2022/02/27 11:07:45;;;;;;;8.50;3.70;;;9.00;99.90;;;;;;5025507;28;20088;-76
2022/02/27 11:10:15;;;;;;;8.43;3.80;;;9.10;99.90;;;;;;5040725;28;20041;-76
2022/02/27 11:12:41;;;;;;;13.18;4.80;;;9.20;99.90;;;;;;5025985;28;20026;-75
2022/02/27 11:15:10;;;;;;;7.60;4.20;;;9.40;99.90;;;;;;5040109;28;20026;-76
2022/02/27 11:17:36;;;;;;;6.57;4.25;;;9.40;99.90;;;;;;5020076;28;20096;-75
2022/02/27 11:20:05;;;;;;;8.73;3.47;;;9.40;99.90;;;;;;5034200;28;20021;-75
2022/02/27 11:22:32;;;;;;;9.70;4.80;;;9.50;99.90;;;;;;5031448;28;20413;-75
2022/02/27 11:24:59;;;;;;;7.82;3.80;;;9.40;99.90;;;;;;5037312;28;20024;-75
2022/02/27 11:27:27;;;;;;;7.30;3.90;;;9.40;99.90;;;;;;5036939;28;20043;-75
2022/02/27 11:30:00;;;;;;;7.05;3.78;;;9.60;99.90;;;;;;5024198;28;20044;-75
2022/02/27 11:32:26;;;;;;;5.72;3.58;;;9.70;99.90;;;;;;5032080;28;20025;-75
2022/02/27 11:34:53;;;;;;;8.88;3.95;;;9.80;99.90;;;;;;5027854;28;20026;-76
2022/02/27 11:37:50;;;;;;;8.68;4.15;;;9.80;99.90;;;;;;5033850;28;20108;-75
2022/02/27 11:40:34;;;;;;;7.07;3.60;;;9.80;99.90;;;;;;5027803;28;20040;-77
2022/02/27 11:43:02;;;;;;;9.80;3.95;;;9.90;99.90;;;;;;5035316;28;20547;-74
2022/02/27 11:45:36;;;;;;;7.72;3.60;;;9.90;99.90;;;;;;5028788;28;20026;-76
2022/02/27 11:48:06;;;;;;;8.95;3.72;;;10.00;99.90;;;;;;5029498;28;20057;-77
2022/02/27 11:50:44;;;;;;;6.85;3.38;;;9.90;99.90;;;;;;5036835;28;20037;-75
2022/02/27 11:53:45;;;;;;;7.15;3.15;;;9.80;99.90;;;;;;5030237;28;20044;-75
2022/02/27 11:56:11;;;;;;;7.45;3.50;;;9.90;99.90;;;;;;5027047;28;20386;-75
2022/02/27 11:58:36;;;;;;;6.60;3.30;;;10.10;99.90;;;;;;5033370;28;20030;-75
2022/02/27 12:01:03;;;;;;;5.35;3.05;;;10.10;99.90;;;;;;5035297;28;20018;-75
2022/02/27 12:03:32;;;;;;;12.07;4.25;;;10.10;99.90;;;;;;5022675;28;20033;-76
2022/02/27 12:06:08;;;;;;;8.48;4.07;;;10.10;99.90;;;;;;5035476;28;20021;-75
2022/02/27 12:08:42;;;;;;;8.32;3.25;;;10.00;99.90;;;;;;5035183;28;20736;-75
2022/02/27 12:11:26;;;;;;;3.63;2.83;;;10.10;99.90;;;;;;5037734;28;20061;-75
2022/02/27 12:13:53;;;;;;;8.57;3.83;;;10.20;99.90;;;;;;5044176;28;20025;-75
2022/02/27 12:16:32;;;;;;;9.52;3.63;;;10.20;99.90;;;;;;5025570;28;20032;-75
2022/02/27 12:18:58;;;;;;;5.22;3.35;;;10.20;99.90;;;;;;5032293;28;20481;-75
2022/02/27 12:21:34;;;;;;;8.18;3.47;;;10.10;99.90;;;;;;5033543;28;20082;-75
2022/02/27 12:24:08;;;;;;;4.93;3.30;;;10.30;99.90;;;;;;5028127;28;20036;-75
2022/02/27 12:26:36;;;;;;;5.65;2.95;;;10.30;99.90;;;;;;5029366;28;20025;-75
2022/02/27 12:29:04;;;;;;;6.07;3.38;;;10.40;99.90;;;;;;5036357;28;20128;-76
2022/02/27 12:31:33;;;;;;;8.63;3.35;;;10.60;99.90;;;;;;5033608;28;20084;-75
2022/02/27 12:34:13;;;;;;;6.88;3.40;;;10.60;99.90;;;;;;5017085;28;20017;-76
2022/02/27 12:36:39;;;;;;;3.83;2.55;;;10.60;99.90;;;;;;5035460;28;20079;-75
2022/02/27 12:39:05;;;;;;;5.00;3.03;;;10.60;99.90;;;;;;5022654;28;20538;-75
2022/02/27 12:41:33;;;;;;;4.95;3.28;;;10.40;99.90;;;;;;5035077;28;20109;-75
2022/02/27 12:44:00;;;;;;;3.92;2.92;;;10.50;99.90;;;;;;5028071;28;20388;-75